Time;durP1;ratioP1;P1;durP2;ratioP2;P2;SDS_P1;SDS_P2;PMS_P1;PMS_P2;Temp;Humidity;BMP_temperature;BMP_pressure;BME280_temperature;BME280_humidity;BME280_pressure;Samples;Min_cycle;Max_cycle;Signal;HPM_P1;HPM_P2
2022/06/25 00:00:55;;;;;;;1.93;1.10;;;16.80;99.90;;;;;;5095997;28;20215;-46
2022/06/25 00:03:20;;;;;;;1.60;1.30;;;16.80;99.90;;;;;;5095863;28;20210;-45
2022/06/25 00:05:46;;;;;;;1.67;1.10;;;16.80;99.90;;;;;;5077393;28;20178;-46
2022/06/25 00:08:12;;;;;;;1.53;1.07;;;16.80;99.90;;;;;;5095426;28;20225;-45
2022/06/25 00:10:38;;;;;;;3.87;1.40;;;16.80;99.90;;;;;;5095804;28;20187;-45
2022/06/25 00:13:03;;;;;;;2.50;1.37;;;16.80;99.90;;;;;;5077349;28;20217;-47
2022/06/25 00:15:29;;;;;;;3.90;1.10;;;16.80;99.90;;;;;;5095519;28;20190;-45
2022/06/25 00:17:56;;;;;;;2.33;1.17;;;16.70;99.90;;;;;;5095363;28;20217;-46
2022/06/25 00:20:21;;;;;;;3.27;1.40;;;16.70;99.90;;;;;;5095084;28;20214;-45
2022/06/25 00:22:47;;;;;;;2.73;1.13;;;16.60;99.90;;;;;;5095221;28;20186;-45
2022/06/25 00:25:13;;;;;;;1.60;1.40;;;16.60;99.90;;;;;;5095046;28;20631;-47
2022/06/25 00:27:39;;;;;;;2.50;1.20;;;16.60;99.90;;;;;;5094310;28;20210;-45
2022/06/25 00:30:06;;;;;;;3.17;0.90;;;16.60;99.90;;;;;;5095039;28;20194;-45
2022/06/25 00:32:33;;;;;;;2.40;1.10;;;16.50;99.90;;;;;;5076780;28;20293;-46
2022/06/25 00:34:58;;;;;;;4.37;1.20;;;16.50;99.90;;;;;;5094952;28;20221;-45
2022/06/25 00:37:24;;;;;;;1.93;1.10;;;16.50;99.90;;;;;;5076759;28;20191;-46
2022/06/25 00:39:50;;;;;;;6.93;1.87;;;16.40;99.90;;;;;;5095099;28;20214;-45
2022/06/25 00:42:16;;;;;;;5.40;1.60;;;16.40;99.90;;;;;;5076755;28;20187;-46
2022/06/25 00:44:42;;;;;;;3.53;1.57;;;16.40;99.90;;;;;;5094879;28;20201;-46
2022/06/25 00:47:12;;;;;;;2.67;1.20;;;16.30;99.90;;;;;;5076569;28;20220;-45
2022/06/25 00:49:39;;;;;;;2.90;1.40;;;16.30;99.90;;;;;;5094768;28;20214;-46
2022/06/25 00:52:14;;;;;;;3.80;1.27;;;16.30;99.90;;;;;;5093378;28;20266;-46
2022/06/25 00:54:48;;;;;;;1.53;1.17;;;16.30;99.90;;;;;;5094606;28;20601;-46
2022/06/25 00:57:24;;;;;;;2.10;1.10;;;16.30;99.90;;;;;;5076921;28;20214;-46
2022/06/25 00:59:52;;;;;;;1.17;1.07;;;16.30;99.90;;;;;;5093282;28;20207;-46
2022/06/25 01:02:21;;;;;;;3.50;1.50;;;16.40;99.90;;;;;;5076360;28;20225;-45
2022/06/25 01:04:48;;;;;;;3.80;1.60;;;16.40;99.90;;;;;;5094366;28;20240;-45
2022/06/25 01:07:14;;;;;;;3.30;1.17;;;16.40;99.90;;;;;;5094552;28;20210;-46
2022/06/25 01:09:40;;;;;;;5.43;1.30;;;16.40;99.90;;;;;;5094331;28;20195;-46
2022/06/25 01:12:07;;;;;;;2.80;1.30;;;16.40;99.90;;;;;;5076137;28;20700;-46
2022/06/25 01:14:33;;;;;;;6.70;1.53;;;16.30;99.90;;;;;;5094418;28;20182;-45
2022/06/25 01:16:59;;;;;;;8.20;1.63;;;16.30;99.90;;;;;;5094217;28;20546;-46
2022/06/25 01:19:24;;;;;;;3.63;1.33;;;16.30;99.90;;;;;;5092948;28;20203;-46
2022/06/25 01:21:50;;;;;;;6.97;1.40;;;16.20;99.90;;;;;;5075900;28;20190;-45
2022/06/25 01:24:16;;;;;;;5.90;1.57;;;16.20;99.90;;;;;;5075960;28;20179;-43
2022/06/25 01:26:42;;;;;;;5.80;1.50;;;16.20;99.90;;;;;;5092926;28;20202;-45
2022/06/25 01:29:09;;;;;;;6.37;1.50;;;16.10;99.90;;;;;;5094246;28;20210;-46
2022/06/25 01:31:36;;;;;;;2.57;1.17;;;16.10;99.90;;;;;;5075798;28;20187;-45
2022/06/25 01:34:03;;;;;;;2.63;1.13;;;16.10;99.90;;;;;;5093946;28;20186;-45
2022/06/25 01:36:29;;;;;;;5.47;1.50;;;16.10;99.90;;;;;;5093814;28;20261;-46
2022/06/25 01:38:55;;;;;;;5.60;1.30;;;16.00;99.90;;;;;;5093876;28;20340;-45
2022/06/25 01:41:20;;;;;;;4.90;1.37;;;16.00;99.90;;;;;;5093861;28;20214;-46
2022/06/25 01:43:46;;;;;;;3.43;1.53;;;16.00;99.90;;;;;;5093886;28;20198;-45
2022/06/25 01:46:14;;;;;;;4.23;1.30;;;16.00;99.90;;;;;;5075679;28;20207;-45
2022/06/25 01:48:40;;;;;;;4.07;1.10;;;16.00;99.90;;;;;;5093635;28;20218;-46
2022/06/25 01:51:05;;;;;;;5.17;1.67;;;16.00;99.90;;;;;;5091535;22;20236;-42
2022/06/25 01:53:31;;;;;;;4.40;1.30;;;16.00;99.90;;;;;;5113948;28;20178;-39
2022/06/25 01:55:56;;;;;;;5.50;1.30;;;16.00;99.90;;;;;;5113983;28;20166;-40
2022/06/25 01:58:23;;;;;;;5.33;1.10;;;16.00;99.90;;;;;;5134446;27;20227;-41
2022/06/25 02:00:48;;;;;;;1.97;1.23;;;16.00;99.90;;;;;;5134489;27;20177;-40
2022/06/25 02:03:14;;;;;;;3.20;1.53;;;15.90;99.90;;;;;;5134747;27;20217;-41
2022/06/25 02:05:56;;;;;;;3.07;1.10;;;15.90;99.90;;;;;;5134453;27;20176;-41
2022/06/25 02:08:23;;;;;;;5.07;1.40;;;15.90;99.90;;;;;;5134611;28;20245;-39
2022/06/25 02:10:49;;;;;;;2.00;1.20;;;15.90;99.90;;;;;;5116085;28;20652;-39
2022/06/25 02:13:15;;;;;;;5.60;1.50;;;15.90;99.90;;;;;;5134505;28;20208;-38
2022/06/25 02:15:41;;;;;;;10.97;1.30;;;15.90;99.90;;;;;;5134341;28;20214;-39
2022/06/25 02:18:08;;;;;;;3.97;1.40;;;15.80;99.90;;;;;;5134218;28;20174;-42
2022/06/25 02:20:34;;;;;;;3.97;1.40;;;15.90;99.90;;;;;;5135295;28;20260;-44
2022/06/25 02:22:59;;;;;;;6.90;1.30;;;15.90;99.90;;;;;;5137773;28;20177;-43
2022/06/25 02:25:25;;;;;;;2.57;1.60;;;15.80;99.90;;;;;;5137784;28;20173;-42
2022/06/25 02:27:51;;;;;;;4.80;1.63;;;15.80;99.90;;;;;;5137416;28;20209;-44
2022/06/25 02:30:17;;;;;;;11.83;2.00;;;15.80;99.90;;;;;;5137005;28;20198;-42
2022/06/25 02:32:42;;;;;;;9.07;1.67;;;15.70;99.90;;;;;;5137527;28;20165;-43
2022/06/25 02:35:08;;;;;;;10.37;1.93;;;15.70;99.90;;;;;;5137453;28;20173;-43
2022/06/25 02:37:34;;;;;;;9.10;1.40;;;15.70;99.90;;;;;;5137439;28;20173;-44
2022/06/25 02:39:59;;;;;;;4.50;1.40;;;15.70;99.90;;;;;;5136859;28;20680;-44
2022/06/25 02:42:31;;;;;;;9.47;1.20;;;15.60;99.90;;;;;;5137470;28;20177;-45
2022/06/25 02:44:57;;;;;;;7.10;1.83;;;15.50;99.90;;;;;;5136931;28;20181;-44
2022/06/25 02:47:22;;;;;;;7.77;1.73;;;15.50;99.90;;;;;;5137525;28;20193;-45
2022/06/25 02:49:48;;;;;;;2.00;1.60;;;15.50;99.90;;;;;;5138354;27;20678;-43
2022/06/25 02:52:13;;;;;;;2.87;1.60;;;15.50;99.90;;;;;;5140823;27;20195;-43
2022/06/25 02:54:39;;;;;;;3.93;1.40;;;15.50;99.90;;;;;;5141132;27;20174;-44
2022/06/25 02:59:49;;;;;;;6.73;1.60;;;15.50;99.90;;;;;;5140663;27;20204;-44
2022/06/25 03:02:15;;;;;;;2.93;1.60;;;15.50;99.90;;;;;;5140983;27;20177;-46
2022/06/25 03:04:40;;;;;;;2.40;1.80;;;15.50;99.90;;;;;;5141309;27;20185;-43
2022/06/25 03:07:06;;;;;;;2.67;1.70;;;15.60;99.90;;;;;;5140638;27;20203;-45
2022/06/25 03:09:31;;;;;;;5.50;1.90;;;15.50;99.90;;;;;;5140229;27;20680;-43
2022/06/25 03:11:57;;;;;;;5.63;1.90;;;15.60;99.90;;;;;;5140622;27;20174;-43
2022/06/25 03:14:22;;;;;;;2.20;1.77;;;15.60;99.90;;;;;;5140286;27;20184;-43
2022/06/25 03:16:48;;;;;;;3.13;2.37;;;15.70;99.90;;;;;;5140931;27;20181;-44
2022/06/25 03:19:13;;;;;;;3.37;1.80;;;15.70;99.90;;;;;;5140201;27;20212;-43
2022/06/25 03:21:39;;;;;;;2.70;1.80;;;15.70;99.90;;;;;;5140902;27;20550;-43
2022/06/25 03:24:05;;;;;;;5.27;1.83;;;15.70;99.90;;;;;;5140752;27;20185;-43
2022/06/25 03:26:31;;;;;;;5.03;2.17;;;15.70;99.90;;;;;;5140553;27;20671;-44
2022/06/25 03:28:57;;;;;;;2.87;1.90;;;15.70;99.90;;;;;;5140386;27;20186;-44
2022/06/25 03:31:22;;;;;;;6.17;2.20;;;15.70;99.90;;;;;;5141319;27;20191;-44
2022/06/25 03:33:49;;;;;;;4.30;2.10;;;15.70;99.90;;;;;;5140378;27;20198;-44
2022/06/25 03:36:14;;;;;;;3.73;1.83;;;15.70;99.90;;;;;;5140660;27;20185;-42
2022/06/25 03:38:40;;;;;;;5.93;1.80;;;15.70;99.90;;;;;;5140650;27;20288;-44
2022/06/25 03:43:49;;;;;;;4.90;2.00;;;15.70;99.90;;;;;;5140114;27;20165;-44
2022/06/25 03:46:15;;;;;;;4.67;1.90;;;15.70;99.90;;;;;;5140110;27;20194;-44
2022/06/25 03:48:41;;;;;;;10.67;2.07;;;15.70;99.90;;;;;;5139762;27;20261;-44
2022/06/25 03:51:07;;;;;;;5.07;2.20;;;15.70;99.90;;;;;;5139571;27;20177;-44
2022/06/25 03:53:32;;;;;;;7.63;2.13;;;15.70;99.90;;;;;;5139015;28;20157;-43
2022/06/25 03:55:59;;;;;;;12.43;2.00;;;15.60;99.90;;;;;;5139176;28;20174;-44
2022/06/25 03:58:24;;;;;;;7.27;2.17;;;15.70;99.90;;;;;;5138789;28;20212;-43
2022/06/25 04:00:50;;;;;;;5.67;2.27;;;15.60;99.90;;;;;;5120384;28;20177;-44
2022/06/25 04:03:16;;;;;;;6.53;2.07;;;15.70;99.90;;;;;;5139128;28;20185;-43
2022/06/25 04:05:41;;;;;;;5.87;2.50;;;15.70;99.90;;;;;;5139336;28;20228;-43
2022/06/25 04:08:07;;;;;;;3.60;1.90;;;15.70;99.90;;;;;;5139158;28;20210;-44
2022/06/25 04:10:33;;;;;;;7.47;2.07;;;15.70;99.90;;;;;;5139429;28;20172;-43
2022/06/25 04:12:58;;;;;;;3.47;1.93;;;15.70;99.90;;;;;;5139121;28;20184;-43
2022/06/25 04:15:24;;;;;;;4.07;2.23;;;15.70;99.90;;;;;;5139245;28;20170;-44
2022/06/25 04:17:49;;;;;;;4.50;2.20;;;15.70;99.90;;;;;;5140310;28;20188;-44
2022/06/25 04:20:15;;;;;;;6.00;2.30;;;15.80;99.90;;;;;;5140539;28;20202;-45
2022/06/25 04:22:41;;;;;;;4.93;2.03;;;15.80;99.90;;;;;;5140141;28;20549;-44
2022/06/25 04:25:07;;;;;;;4.73;1.97;;;15.80;99.90;;;;;;5139077;28;20181;-45
2022/06/25 04:30:17;;;;;;;4.27;1.83;;;15.90;99.90;;;;;;5138369;28;20231;-43
2022/06/25 04:32:42;;;;;;;5.07;2.63;;;16.00;99.90;;;;;;5137162;28;20177;-43
2022/06/25 04:35:08;;;;;;;5.20;2.30;;;16.00;99.90;;;;;;5137340;28;20184;-43
2022/06/25 04:37:34;;;;;;;4.77;2.30;;;16.00;99.90;;;;;;5137383;28;20184;-45
2022/06/25 04:39:59;;;;;;;4.07;2.60;;;16.10;99.90;;;;;;5137269;28;20208;-44
2022/06/25 04:42:25;;;;;;;4.40;2.17;;;16.20;99.90;;;;;;5137443;28;20221;-44
2022/06/25 04:44:50;;;;;;;4.80;2.30;;;16.20;99.90;;;;;;5137090;28;20185;-45
2022/06/25 04:47:16;;;;;;;5.83;2.40;;;16.20;99.90;;;;;;5136947;28;20229;-44
2022/06/25 04:49:41;;;;;;;6.70;2.13;;;16.20;99.90;;;;;;5136913;28;20250;-44
2022/06/25 04:52:07;;;;;;;11.90;2.53;;;16.30;99.90;;;;;;5099345;27;1076157;-44
2022/06/25 04:54:32;;;;;;;7.00;2.30;;;16.30;99.90;;;;;;5138007;27;20267;-44
2022/06/25 04:56:58;;;;;;;6.07;2.17;;;16.40;99.90;;;;;;5138010;27;20181;-42
2022/06/25 04:59:24;;;;;;;10.97;2.50;;;16.50;99.90;;;;;;5138138;27;20542;-42
2022/06/25 05:01:50;;;;;;;3.93;2.10;;;16.50;99.90;;;;;;5137306;27;20177;-45
2022/06/25 05:04:16;;;;;;;5.40;2.57;;;16.50;99.90;;;;;;5137868;27;20184;-44
2022/06/25 05:06:41;;;;;;;5.07;2.43;;;16.50;99.90;;;;;;5137964;27;20205;-45
2022/06/25 05:09:07;;;;;;;4.47;2.20;;;16.60;99.90;;;;;;5137790;27;20239;-44
2022/06/25 05:11:32;;;;;;;7.63;2.50;;;16.60;99.90;;;;;;5137722;27;20636;-43
2022/06/25 05:13:58;;;;;;;7.23;2.93;;;16.60;99.90;;;;;;5137379;27;20241;-43
2022/06/25 05:16:24;;;;;;;5.77;2.57;;;16.60;99.90;;;;;;5137237;27;20173;-46
2022/06/25 05:18:49;;;;;;;4.43;2.70;;;16.70;99.90;;;;;;5137215;27;20193;-43
2022/06/25 05:21:15;;;;;;;7.10;2.50;;;16.80;99.90;;;;;;5138190;27;20189;-44
2022/06/25 05:23:40;;;;;;;5.00;2.30;;;16.90;99.90;;;;;;5138024;27;20579;-46
2022/06/25 05:26:06;;;;;;;3.70;2.30;;;16.90;99.90;;;;;;5137023;27;20201;-44
2022/06/25 05:28:32;;;;;;;2.77;2.20;;;17.00;99.90;;;;;;5137425;27;20245;-44
2022/06/25 05:30:57;;;;;;;2.63;1.77;;;17.20;99.90;;;;;;5137159;27;20212;-44
2022/06/25 05:33:23;;;;;;;5.53;1.80;;;17.30;99.90;;;;;;5137718;27;20184;-42
2022/06/25 05:35:49;;;;;;;2.20;2.00;;;17.40;99.90;;;;;;5137277;27;20177;-43
2022/06/25 05:38:14;;;;;;;2.20;1.90;;;17.50;99.90;;;;;;5137375;27;20534;-44
2022/06/25 05:40:40;;;;;;;4.57;1.87;;;17.60;99.90;;;;;;5137833;27;20185;-45
2022/06/25 05:43:06;;;;;;;3.53;1.70;;;17.80;99.90;;;;;;5137326;27;20201;-43
2022/06/25 05:45:31;;;;;;;2.30;1.37;;;17.80;99.90;;;;;;5137732;27;20663;-39
2022/06/25 05:47:57;;;;;;;6.37;1.67;;;18.00;99.90;;;;;;5134951;27;20201;-40
2022/06/25 05:50:23;;;;;;;3.07;1.40;;;18.10;99.90;;;;;;5134478;27;20639;-38
2022/06/25 05:52:49;;;;;;;2.03;1.60;;;18.30;99.90;;;;;;5134503;27;20189;-40
2022/06/25 05:55:14;;;;;;;1.40;1.30;;;18.40;99.90;;;;;;5135124;27;20173;-39
2022/06/25 05:57:40;;;;;;;4.83;1.50;;;18.50;99.90;;;;;;5134627;27;20543;-40
2022/06/25 06:00:08;;;;;;;3.87;1.60;;;18.60;99.90;;;;;;5134443;27;20212;-38
2022/06/25 06:02:34;;;;;;;2.33;1.40;;;18.70;99.90;;;;;;5134867;27;20215;-38
2022/06/25 06:04:59;;;;;;;5.23;1.40;;;18.90;99.90;;;;;;5134554;27;20227;-39
2022/06/25 06:07:25;;;;;;;2.50;1.30;;;19.10;99.90;;;;;;5134842;27;20644;-39
2022/06/25 06:09:51;;;;;;;3.10;1.50;;;19.30;99.90;;;;;;5134612;28;20253;-40
2022/06/25 06:12:16;;;;;;;2.47;1.30;;;19.50;99.90;;;;;;5134608;28;20244;-40
2022/06/25 06:14:42;;;;;;;2.50;1.13;;;19.70;99.90;;;;;;5134364;28;20220;-39
2022/06/25 06:17:08;;;;;;;3.10;1.20;;;19.90;99.90;;;;;;5134594;28;20230;-39
2022/06/25 06:19:33;;;;;;;3.93;1.40;;;20.00;99.90;;;;;;5134358;28;20200;-41
2022/06/25 06:21:59;;;;;;;1.77;1.10;;;20.10;99.90;;;;;;5134346;28;20180;-39
2022/06/25 06:24:24;;;;;;;3.53;1.37;;;20.30;99.90;;;;;;5135434;27;20188;-41
2022/06/25 06:26:50;;;;;;;1.17;0.93;;;20.50;99.90;;;;;;5138529;27;20209;-41
2022/06/25 06:29:17;;;;;;;9.40;1.13;;;20.70;99.90;;;;;;5138636;27;20660;-40
2022/06/25 06:31:43;;;;;;;1.73;1.00;;;20.80;99.90;;;;;;5138681;27;20326;-37
2022/06/25 06:34:08;;;;;;;3.13;1.00;;;20.90;99.90;;;;;;5119965;27;20709;-40
2022/06/25 06:36:34;;;;;;;2.00;0.93;;;21.00;99.90;;;;;;5138332;27;20566;-41
2022/06/25 06:39:00;;;;;;;3.20;1.10;;;21.10;99.90;;;;;;5138239;27;20202;-42
2022/06/25 06:41:25;;;;;;;3.30;1.00;;;21.20;99.90;;;;;;5119848;27;20733;-40
2022/06/25 06:43:51;;;;;;;3.30;0.90;;;21.20;99.90;;;;;;5138143;27;20174;-38
2022/06/25 06:46:16;;;;;;;2.73;1.10;;;21.50;99.90;;;;;;5138672;27;20198;-38
2022/06/25 06:48:42;;;;;;;2.97;1.13;;;21.70;99.90;;;;;;5138084;27;20186;-39
2022/06/25 06:51:08;;;;;;;4.73;1.10;;;21.80;99.90;;;;;;5138091;27;20182;-39
2022/06/25 06:53:34;;;;;;;2.30;0.90;;;22.10;99.90;;;;;;5138210;27;20641;-37
2022/06/25 06:56:00;;;;;;;5.70;1.30;;;22.20;99.90;;;;;;5137949;27;20215;-39
2022/06/25 06:58:27;;;;;;;2.07;0.80;;;22.40;99.90;;;;;;5139836;27;20194;-38
2022/06/25 07:00:53;;;;;;;2.17;1.00;;;22.50;99.90;;;;;;5140474;27;20290;-42
2022/06/25 07:03:18;;;;;;;2.87;0.97;;;22.60;99.90;;;;;;5138077;27;20210;-41
2022/06/25 07:05:44;;;;;;;3.40;1.23;;;22.70;99.90;;;;;;5137741;27;20201;-37
2022/06/25 07:08:09;;;;;;;1.57;0.87;;;22.70;99.90;;;;;;5137729;27;20205;-40
2022/06/25 07:10:35;;;;;;;1.97;1.00;;;22.80;99.90;;;;;;5137619;27;20680;-41
2022/06/25 07:13:00;;;;;;;4.37;1.07;;;23.00;99.90;;;;;;5137802;27;20201;-40
2022/06/25 07:15:26;;;;;;;2.87;1.00;;;23.10;99.90;;;;;;5137601;27;20210;-41
2022/06/25 07:17:51;;;;;;;1.57;1.03;;;23.30;99.90;;;;;;5137546;27;20181;-41
2022/06/25 07:20:17;;;;;;;2.80;0.83;;;23.50;99.90;;;;;;5140337;27;20193;-39
2022/06/25 07:22:42;;;;;;;5.93;1.10;;;23.60;99.90;;;;;;5137349;27;20619;-38
2022/06/25 07:25:08;;;;;;;2.93;0.90;;;23.70;99.90;;;;;;5137566;27;20177;-39
2022/06/25 07:27:34;;;;;;;2.20;0.90;;;23.80;99.90;;;;;;5138433;27;20215;-40
2022/06/25 07:29:59;;;;;;;3.60;0.90;;;23.90;99.90;;;;;;5139911;27;20351;-39
2022/06/25 07:32:25;;;;;;;3.77;0.90;;;24.10;99.90;;;;;;5140317;27;20197;-39
2022/06/25 07:34:51;;;;;;;2.10;1.00;;;24.30;99.90;;;;;;5137265;27;20648;-39
2022/06/25 07:37:17;;;;;;;3.40;0.90;;;24.30;99.90;;;;;;5138749;27;20633;-39
2022/06/25 07:39:42;;;;;;;3.13;0.80;;;24.40;99.90;;;;;;5137281;27;20205;-39
2022/06/25 07:42:08;;;;;;;1.80;0.80;;;24.60;99.90;;;;;;5136690;27;20649;-39
2022/06/25 07:44:34;;;;;;;2.03;1.00;;;24.60;99.90;;;;;;5136956;27;20209;-39
2022/06/25 07:46:59;;;;;;;2.30;1.00;;;24.70;99.90;;;;;;5136473;27;20294;-41
2022/06/25 07:49:25;;;;;;;4.00;1.00;;;24.80;99.90;;;;;;5136638;27;20192;-39
2022/06/25 07:51:57;;;;;;;1.57;0.80;;;25.00;99.90;;;;;;5136817;27;20249;-39
2022/06/25 07:54:29;;;;;;;3.83;1.10;;;25.00;99.90;;;;;;5136749;27;20160;-41
2022/06/25 07:56:55;;;;;;;3.20;0.90;;;24.90;99.90;;;;;;5137480;27;20622;-40
2022/06/25 07:59:22;;;;;;;2.17;1.10;;;25.00;99.90;;;;;;5118106;27;20668;-40
2022/06/25 08:01:48;;;;;;;1.00;0.80;;;25.20;99.90;;;;;;5136658;27;20169;-40
2022/06/25 08:04:14;;;;;;;2.00;0.80;;;25.50;99.90;;;;;;5136464;27;20182;-40
2022/06/25 08:06:41;;;;;;;2.53;0.90;;;25.60;99.90;;;;;;5136641;27;20206;-41
2022/06/25 08:09:08;;;;;;;4.67;1.17;;;25.60;99.90;;;;;;5136490;27;20230;-40
2022/06/25 08:11:34;;;;;;;2.53;0.83;;;25.60;99.90;;;;;;5136227;27;20166;-40
2022/06/25 08:14:00;;;;;;;3.13;1.00;;;25.50;99.90;;;;;;5136728;27;20575;-40
2022/06/25 08:16:27;;;;;;;2.90;1.00;;;25.50;99.90;;;;;;5136348;27;20177;-41
2022/06/25 08:18:53;;;;;;;2.20;1.17;;;25.60;99.90;;;;;;5136208;27;20205;-41
2022/06/25 08:21:19;;;;;;;1.63;1.40;;;25.70;99.90;;;;;;5136287;27;20181;-39
2022/06/25 08:23:45;;;;;;;3.63;1.00;;;25.70;99.90;;;;;;5136531;27;20204;-41
2022/06/25 08:26:10;;;;;;;1.97;1.10;;;25.70;99.90;;;;;;5136404;27;20640;-41
2022/06/25 08:28:36;;;;;;;4.63;1.50;;;25.60;99.90;;;;;;5136234;27;20189;-40
2022/06/25 08:31:03;;;;;;;4.20;0.87;;;25.50;99.90;;;;;;5136200;27;20198;-41
2022/06/25 08:33:29;;;;;;;1.63;1.00;;;25.70;99.90;;;;;;5136104;27;20173;-40
2022/06/25 08:35:54;;;;;;;2.60;1.20;;;25.80;99.90;;;;;;5136066;27;20174;-41
2022/06/25 08:38:20;;;;;;;5.30;1.27;;;25.80;99.90;;;;;;5135969;27;20185;-41
2022/06/25 08:40:45;;;;;;;3.30;1.03;;;26.00;99.90;;;;;;5135896;27;20173;-41
2022/06/25 08:43:11;;;;;;;3.60;1.20;;;26.10;99.90;;;;;;5135850;27;20279;-40
2022/06/25 08:45:37;;;;;;;4.90;1.07;;;26.20;99.90;;;;;;5135785;27;20181;-41
2022/06/25 08:48:12;;;;;;;3.53;1.07;;;26.40;99.90;;;;;;5134913;27;20205;-42
2022/06/25 08:50:39;;;;;;;4.37;1.10;;;26.50;99.90;;;;;;5135973;27;20166;-40
2022/06/25 08:53:05;;;;;;;2.73;1.10;;;26.60;99.90;;;;;;5135585;27;20318;-40
2022/06/25 08:55:42;;;;;;;1.40;0.97;;;26.70;99.90;;;;;;5135822;27;20665;-41
2022/06/25 08:58:09;;;;;;;2.87;0.90;;;26.70;99.90;;;;;;5135727;27;20153;-42
2022/06/25 09:00:37;;;;;;;2.83;1.40;;;26.70;99.90;;;;;;5136027;27;20567;-41
2022/06/25 09:03:03;;;;;;;2.23;1.10;;;26.70;99.90;;;;;;5135698;27;20210;-39
2022/06/25 09:05:40;;;;;;;2.27;1.10;;;26.90;99.90;;;;;;5136091;27;20655;-39
2022/06/25 09:08:08;;;;;;;5.23;1.20;;;27.10;99.90;;;;;;5135284;27;20194;-39
2022/06/25 09:10:35;;;;;;;5.83;1.13;;;27.30;99.90;;;;;;5135531;27;20233;-39
2022/06/25 09:13:08;;;;;;;3.73;1.33;;;27.40;99.90;;;;;;5135497;27;20181;-38
2022/06/25 09:15:39;;;;;;;2.20;1.10;;;27.50;99.90;;;;;;5135160;27;20169;-38
2022/06/25 09:18:07;;;;;;;1.30;0.90;;;27.60;99.90;;;;;;5135286;27;20196;-41
2022/06/25 09:20:34;;;;;;;2.63;1.10;;;27.60;99.90;;;;;;5135163;27;20260;-40
2022/06/25 09:23:05;;;;;;;4.30;1.00;;;27.70;99.90;;;;;;5135612;27;20181;-42
2022/06/25 09:25:33;;;;;;;2.07;1.30;;;27.50;99.90;;;;;;5135353;27;20174;-40
2022/06/25 09:28:00;;;;;;;3.63;1.20;;;27.40;99.90;;;;;;5134875;27;20653;-39
2022/06/25 09:30:29;;;;;;;5.00;1.97;;;27.20;99.90;;;;;;5134911;27;20201;-41
2022/06/25 09:33:00;;;;;;;3.60;1.00;;;27.10;99.90;;;;;;5136009;27;20166;-40
2022/06/25 09:35:37;;;;;;;4.60;1.30;;;26.90;99.90;;;;;;5135251;27;20616;-40
2022/06/25 09:38:14;;;;;;;4.00;1.13;;;26.90;99.90;;;;;;5134965;27;20199;-39
2022/06/25 09:40:50;;;;;;;2.55;1.10;;;27.00;99.90;;;;;;5135068;27;20193;-41
2022/06/25 09:43:18;;;;;;;1.90;1.20;;;27.00;99.90;;;;;;5134965;27;20554;-40
2022/06/25 09:45:49;;;;;;;2.38;1.08;;;27.00;99.90;;;;;;5134665;27;20181;-41
2022/06/25 09:48:26;;;;;;;2.15;0.98;;;27.10;99.90;;;;;;5134581;27;20241;-39
2022/06/25 09:51:13;;;;;;;1.83;0.98;;;27.10;99.90;;;;;;5134797;27;20169;-42
2022/06/25 09:53:48;;;;;;;2.47;1.20;;;27.00;99.90;;;;;;5134858;27;20161;-39
2022/06/25 09:56:29;;;;;;;1.08;0.82;;;27.10;99.90;;;;;;5135113;27;20177;-39
2022/06/25 09:58:55;;;;;;;1.60;0.88;;;27.20;99.90;;;;;;5134358;27;20257;-37
2022/06/25 10:01:26;;;;;;;2.80;0.95;;;27.50;99.90;;;;;;5135338;27;20566;-38
2022/06/25 10:03:53;;;;;;;3.08;1.15;;;27.60;99.90;;;;;;5134464;27;20170;-39
2022/06/25 10:06:20;;;;;;;1.48;0.93;;;27.60;99.90;;;;;;5134663;27;20201;-40
2022/06/25 10:08:49;;;;;;;3.60;0.85;;;27.70;99.90;;;;;;5134384;27;20288;-39
2022/06/25 10:11:16;;;;;;;2.42;0.85;;;28.00;99.90;;;;;;5134683;28;20587;-41
2022/06/25 10:13:42;;;;;;;1.73;0.90;;;28.10;99.90;;;;;;5134375;28;20170;-39
2022/06/25 10:16:09;;;;;;;3.35;1.10;;;28.10;99.90;;;;;;5134432;28;20663;-41
2022/06/25 10:18:36;;;;;;;2.53;1.20;;;28.20;99.90;;;;;;5134977;28;20200;-40
2022/06/25 10:21:02;;;;;;;1.52;0.90;;;28.20;99.90;;;;;;5134881;28;20632;-41
2022/06/25 10:23:28;;;;;;;2.30;1.00;;;28.20;99.90;;;;;;5116028;28;20553;-42
2022/06/25 10:25:54;;;;;;;3.13;1.20;;;28.20;99.90;;;;;;5134504;28;20180;-38
2022/06/25 10:28:28;;;;;;;3.53;1.38;;;28.20;99.90;;;;;;5134175;28;20213;-40
2022/06/25 10:30:57;;;;;;;2.45;1.33;;;28.10;99.90;;;;;;5134925;28;20169;-40
2022/06/25 10:33:28;;;;;;;2.97;0.95;;;28.00;99.90;;;;;;5135383;28;20173;-40
2022/06/25 10:36:04;;;;;;;4.10;1.17;;;28.00;99.90;;;;;;5134191;28;20173;-41
2022/06/25 10:38:30;;;;;;;2.45;1.00;;;27.90;99.90;;;;;;5134724;28;20202;-41
2022/06/25 10:40:57;;;;;;;3.33;1.20;;;27.90;99.90;;;;;;5135856;28;20252;-40
2022/06/25 10:43:45;;;;;;;3.63;0.93;;;28.00;99.90;;;;;;5134111;28;20245;-39
2022/06/25 10:46:31;;;;;;;3.60;1.10;;;28.10;99.90;;;;;;5134174;28;20182;-40
2022/06/25 10:49:10;;;;;;;1.83;1.00;;;28.10;99.90;;;;;;5134285;28;20208;-40
2022/06/25 10:51:38;;;;;;;2.08;0.90;;;28.10;99.90;;;;;;5133990;28;20656;-41
2022/06/25 10:54:23;;;;;;;2.30;0.82;;;28.10;99.90;;;;;;5134208;28;20272;-40
2022/06/25 10:56:53;;;;;;;3.38;1.00;;;28.10;99.90;;;;;;5134528;28;20524;-41
2022/06/25 10:59:54;;;;;;;4.20;1.00;;;28.20;99.90;;;;;;5133961;28;20202;-41
2022/06/25 11:02:23;;;;;;;2.53;0.95;;;28.20;99.90;;;;;;5133409;28;20197;-41
2022/06/25 11:04:54;;;;;;;4.18;1.42;;;28.30;99.90;;;;;;5134002;28;20254;-40
2022/06/25 11:07:23;;;;;;;2.63;0.80;;;28.50;99.90;;;;;;5134101;28;20758;-40
2022/06/25 11:09:59;;;;;;;2.65;1.10;;;28.60;99.90;;;;;;5134103;27;20661;-39
2022/06/25 11:12:27;;;;;;;3.25;1.10;;;28.70;99.90;;;;;;5119251;27;20644;-41
2022/06/25 11:15:00;;;;;;;1.48;0.90;;;28.80;99.90;;;;;;5137658;27;20575;-38
2022/06/25 11:17:26;;;;;;;3.00;0.90;;;29.00;99.90;;;;;;5137951;27;20173;-40
2022/06/25 11:19:51;;;;;;;2.53;0.90;;;29.00;99.90;;;;;;5137447;27;20193;-41
2022/06/25 11:22:17;;;;;;;7.95;1.35;;;29.00;99.90;;;;;;5137518;27;20652;-41
2022/06/25 11:30:13;;;;;;;2.75;1.00;;;29.30;99.90;;;;;;5137592;27;20586;-39
2022/06/25 11:32:43;;;;;;;2.63;1.20;;;29.30;99.90;;;;;;5137579;27;20178;-41
2022/06/25 11:35:08;;;;;;;2.53;1.00;;;29.30;99.90;;;;;;5139440;27;20231;-39
2022/06/25 11:37:34;;;;;;;5.47;1.08;;;29.40;99.90;;;;;;5137358;27;20186;-40
2022/06/25 11:39:59;;;;;;;3.10;1.33;;;29.40;99.90;;;;;;5137664;27;20201;-41
2022/06/25 11:42:25;;;;;;;3.65;1.00;;;29.40;99.90;;;;;;5137113;27;20257;-39
2022/06/25 11:44:56;;;;;;;2.50;0.90;;;29.30;99.90;;;;;;5136968;27;20519;-40
2022/06/25 11:47:25;;;;;;;3.50;1.20;;;29.30;99.90;;;;;;5136995;27;20652;-40
2022/06/25 11:49:51;;;;;;;1.55;0.80;;;29.10;99.90;;;;;;5136881;27;20272;-40
2022/06/25 11:52:20;;;;;;;1.73;0.90;;;29.10;99.90;;;;;;5136854;27;20185;-41
2022/06/25 11:54:47;;;;;;;2.50;0.90;;;29.10;99.90;;;;;;5136863;27;20181;-40
2022/06/25 11:57:21;;;;;;;2.47;0.90;;;29.00;99.90;;;;;;5136826;27;20557;-40
2022/06/25 11:59:49;;;;;;;2.42;0.93;;;29.00;99.90;;;;;;5136694;27;20193;-41
2022/06/25 12:02:15;;;;;;;1.42;1.00;;;29.00;99.90;;;;;;5136995;27;20178;-41
2022/06/25 12:04:54;;;;;;;1.60;1.00;;;28.90;99.90;;;;;;5136963;27;20192;-40
2022/06/25 12:07:24;;;;;;;1.73;0.87;;;28.90;99.90;;;;;;5136515;27;20602;-40
2022/06/25 12:09:51;;;;;;;1.70;0.80;;;28.80;99.90;;;;;;5136768;27;20189;-41
2022/06/25 12:12:18;;;;;;;2.00;1.15;;;28.80;99.90;;;;;;5136507;27;20198;-41
2022/06/25 12:14:45;;;;;;;2.50;1.10;;;28.80;99.90;;;;;;5136513;27;20222;-41
2022/06/25 12:17:11;;;;;;;2.03;1.07;;;28.80;99.90;;;;;;5136704;27;20190;-41
2022/06/25 12:19:45;;;;;;;1.83;0.70;;;29.00;99.90;;;;;;5136261;27;20208;-41
2022/06/25 12:22:24;;;;;;;2.97;1.30;;;29.00;99.90;;;;;;5135153;27;20172;-40
2022/06/25 12:24:53;;;;;;;2.07;1.17;;;29.00;99.90;;;;;;5136202;27;20766;-39
2022/06/25 12:27:19;;;;;;;6.13;1.13;;;29.00;99.90;;;;;;5136395;27;20333;-41
2022/06/25 12:29:49;;;;;;;5.05;1.00;;;28.90;99.90;;;;;;5136324;27;20243;-41
2022/06/25 12:32:16;;;;;;;3.17;1.10;;;29.00;99.90;;;;;;5136728;27;20162;-41
2022/06/25 12:34:49;;;;;;;3.73;0.80;;;28.90;99.90;;;;;;5136286;27;20192;-42
2022/06/25 12:37:33;;;;;;;1.90;0.73;;;28.90;99.90;;;;;;5135945;27;20237;-41
2022/06/25 12:39:59;;;;;;;2.23;0.97;;;28.90;99.90;;;;;;5136015;27;20201;-41
2022/06/25 12:42:28;;;;;;;3.03;1.20;;;29.00;99.90;;;;;;5135992;27;20192;-41
2022/06/25 12:44:54;;;;;;;4.43;0.93;;;29.10;99.90;;;;;;5136254;27;20185;-41
2022/06/25 12:47:20;;;;;;;1.73;1.10;;;29.20;99.90;;;;;;5117436;27;20228;-41
2022/06/25 12:49:46;;;;;;;7.77;1.10;;;29.30;99.90;;;;;;5135820;27;20261;-41
2022/06/25 12:52:13;;;;;;;4.00;1.00;;;29.30;99.90;;;;;;5136367;27;20216;-42
2022/06/25 12:54:50;;;;;;;2.67;1.13;;;29.30;99.90;;;;;;5135725;27;20668;-40
2022/06/25 12:57:22;;;;;;;2.67;0.77;;;29.30;99.90;;;;;;5136117;27;20173;-42
2022/06/25 12:59:48;;;;;;;2.10;0.90;;;29.40;99.90;;;;;;5135703;27;20253;-39